Utopia, Texas
Current Conditions -  °F | °C
As of 10:51 PM on Saturday 25 Oct 2014 (Local Time) from KHDO Reporting Station
Clear Clear  
Wind Chill: 68°   Ceiling: Unl
Heat Index: 68°   Visibility: 10mi
Dew Point: 54°   Wind: 5mph
Humidity: 61%   Direction: 150°SSE
Pressure: 30.12"   Gusts: NA
Location:  29.62°N, 99.53°W
Report Text: KHDO 260351Z AUTO 15004KT 10SM CLR 20/12 A3012 RMK AO2 SLP186 T02000122
Loading
Personal Weather Stations






























Interactive Weather Map
Tropical Storm Tracking
New forecast layout! Learn more

10-Day Weather Forecast

Advertisements
Track Severe Weather on mobile